Time;durP1;ratioP1;P1;durP2;ratioP2;P2;SDS_P1;SDS_P2;PMS_P1;PMS_P2;Temp;Humidity;BMP_temperature;BMP_pressure;BME280_temperature;BME280_humidity;BME280_pressure;Samples;Min_cycle;Max_cycle;Signal;HPM_P1;HPM_P2
2021/08/19 00:02:28;;;;;;;7.47;3.50;;;17.20;99.90;;;;;;5083342;28;20247;-71
2021/08/19 00:04:56;;;;;;;4.73;3.47;;;17.10;99.90;;;;;;5082608;28;20270;-72
2021/08/19 00:07:25;;;;;;;3.40;2.97;;;17.10;99.90;;;;;;5083718;28;20176;-74
2021/08/19 00:09:53;;;;;;;8.90;3.30;;;17.10;99.90;;;;;;5098484;28;20182;-73
2021/08/19 00:12:21;;;;;;;5.03;3.30;;;17.20;99.90;;;;;;5085058;28;20243;-73
2021/08/19 00:14:49;;;;;;;7.47;3.17;;;17.10;99.90;;;;;;5082626;28;20190;-73
2021/08/19 00:17:18;;;;;;;4.47;3.80;;;17.10;99.90;;;;;;5084212;28;20179;-73
2021/08/19 00:19:47;;;;;;;3.33;3.03;;;17.10;99.90;;;;;;5083266;28;20202;-73
2021/08/19 00:22:15;;;;;;;3.70;2.80;;;17.10;99.90;;;;;;5083082;28;20231;-74
2021/08/19 00:24:44;;;;;;;4.27;3.73;;;17.10;99.90;;;;;;5084775;28;20204;-73
2021/08/19 00:27:12;;;;;;;7.10;3.37;;;17.00;99.90;;;;;;5083255;28;20189;-73
2021/08/19 00:29:40;;;;;;;6.20;3.30;;;17.00;99.90;;;;;;5085470;28;20184;-73
2021/08/19 00:32:09;;;;;;;4.33;3.17;;;17.00;99.90;;;;;;5086310;28;20334;-72
2021/08/19 00:34:38;;;;;;;6.60;3.70;;;17.00;99.90;;;;;;5082738;28;20180;-71
2021/08/19 00:37:08;;;;;;;3.43;2.97;;;17.00;99.90;;;;;;5081069;28;20181;-73
2021/08/19 00:39:38;;;;;;;5.23;3.43;;;17.10;99.90;;;;;;5085804;28;20182;-73
2021/08/19 00:42:07;;;;;;;4.77;3.23;;;17.10;99.90;;;;;;5081796;28;20195;-73
2021/08/19 00:44:40;;;;;;;9.37;3.60;;;17.10;99.90;;;;;;5081873;28;20268;-72
2021/08/19 00:47:08;;;;;;;4.80;3.77;;;17.00;99.90;;;;;;5082703;28;20186;-73
2021/08/19 00:49:38;;;;;;;8.53;3.87;;;17.00;99.90;;;;;;5085324;28;20399;-73
2021/08/19 00:52:08;;;;;;;4.17;3.30;;;17.00;99.90;;;;;;5081706;28;20183;-74
2021/08/19 00:54:38;;;;;;;3.70;3.40;;;16.90;99.90;;;;;;5082982;28;20186;-73
2021/08/19 00:57:07;;;;;;;6.20;3.90;;;16.90;99.90;;;;;;5085618;28;20193;-73
2021/08/19 00:59:37;;;;;;;6.50;4.50;;;17.00;99.90;;;;;;5099945;28;20223;-73
2021/08/19 01:02:06;;;;;;;7.10;4.40;;;16.90;99.90;;;;;;5080443;28;20172;-73
2021/08/19 01:04:37;;;;;;;9.10;4.23;;;16.90;99.90;;;;;;5079982;28;20181;-73
2021/08/19 01:07:07;;;;;;;8.53;4.27;;;17.00;99.90;;;;;;5079598;28;20184;-73
2021/08/19 01:09:35;;;;;;;6.70;4.60;;;17.00;99.90;;;;;;5079881;28;20184;-74
2021/08/19 01:12:05;;;;;;;7.20;4.60;;;16.90;99.90;;;;;;5082312;28;20181;-72
2021/08/19 01:14:34;;;;;;;6.70;4.47;;;17.00;99.90;;;;;;5081026;28;20195;-73
2021/08/19 01:17:07;;;;;;;6.37;5.23;;;17.00;99.90;;;;;;5086323;28;20393;-72
2021/08/19 01:19:35;;;;;;;7.90;4.63;;;17.00;99.90;;;;;;5077541;28;21195;-73
2021/08/19 01:22:04;;;;;;;9.70;4.60;;;17.00;99.90;;;;;;5080701;28;20342;-73
2021/08/19 01:24:34;;;;;;;6.17;4.27;;;16.90;99.90;;;;;;5083215;28;20186;-73
2021/08/19 01:27:03;;;;;;;8.80;4.87;;;17.00;99.90;;;;;;5077040;28;20213;-73
2021/08/19 01:29:33;;;;;;;7.53;5.20;;;17.00;99.90;;;;;;5081387;28;20339;-72
2021/08/19 01:32:04;;;;;;;6.43;4.83;;;17.00;99.90;;;;;;5080274;28;20236;-71
2021/08/19 01:34:33;;;;;;;6.63;5.07;;;16.90;99.90;;;;;;5080924;28;20181;-73
2021/08/19 01:37:01;;;;;;;6.80;4.87;;;16.90;99.90;;;;;;5080727;28;20232;-73
2021/08/19 01:39:30;;;;;;;6.87;5.03;;;16.90;99.90;;;;;;5079482;28;20183;-72
2021/08/19 01:41:58;;;;;;;11.87;5.60;;;17.00;99.90;;;;;;5079166;28;20180;-72
2021/08/19 01:44:26;;;;;;;9.00;5.33;;;17.00;99.90;;;;;;5081292;28;20180;-71
2021/08/19 01:46:57;;;;;;;8.30;5.60;;;16.90;99.90;;;;;;5086890;28;20204;-73
2021/08/19 01:49:27;;;;;;;10.07;5.53;;;17.00;99.90;;;;;;5086117;28;20218;-73
2021/08/19 01:51:55;;;;;;;9.97;5.90;;;16.90;99.90;;;;;;5086638;28;20401;-72
2021/08/19 01:54:24;;;;;;;12.03;5.40;;;16.90;99.90;;;;;;5089868;28;20251;-72
2021/08/19 01:56:52;;;;;;;7.80;6.00;;;16.90;99.90;;;;;;5082377;28;20218;-72
2021/08/19 01:59:21;;;;;;;10.10;5.90;;;16.90;99.90;;;;;;5083116;28;20185;-73
2021/08/19 02:01:49;;;;;;;9.30;5.30;;;16.90;99.90;;;;;;5084458;28;20201;-72
2021/08/19 02:04:19;;;;;;;11.30;6.47;;;16.90;99.90;;;;;;5079411;28;20411;-74
2021/08/19 02:06:47;;;;;;;15.30;6.03;;;16.90;99.90;;;;;;5083405;28;20216;-72
2021/08/19 02:09:18;;;;;;;10.97;6.30;;;16.90;99.90;;;;;;5085524;28;20185;-73
2021/08/19 02:11:46;;;;;;;10.83;5.77;;;16.90;99.90;;;;;;5084170;28;20172;-73
2021/08/19 02:14:14;;;;;;;8.20;5.77;;;16.90;99.90;;;;;;5091068;28;20185;-73
2021/08/19 02:16:42;;;;;;;11.33;5.77;;;16.90;99.90;;;;;;5083782;28;20268;-71
2021/08/19 02:19:11;;;;;;;12.13;5.93;;;16.90;99.90;;;;;;5083355;28;20194;-73
2021/08/19 02:21:41;;;;;;;10.30;5.80;;;16.90;99.90;;;;;;5087719;28;20208;-73
2021/08/19 02:24:09;;;;;;;13.47;5.97;;;16.90;99.90;;;;;;5083946;28;20183;-74
2021/08/19 02:26:37;;;;;;;8.70;5.83;;;16.90;99.90;;;;;;5083002;28;20267;-72
2021/08/19 02:29:06;;;;;;;11.30;5.87;;;16.80;99.90;;;;;;5084073;28;20447;-73
2021/08/19 02:31:36;;;;;;;13.37;6.27;;;16.90;99.90;;;;;;5083056;28;21355;-72
2021/08/19 02:34:05;;;;;;;10.33;6.43;;;16.80;99.90;;;;;;5085167;28;20327;-73
2021/08/19 02:36:33;;;;;;;11.73;5.90;;;16.80;99.90;;;;;;5085713;28;20216;-73
2021/08/19 02:39:03;;;;;;;11.43;5.10;;;16.80;99.90;;;;;;5085675;28;20184;-73
2021/08/19 02:41:31;;;;;;;10.07;5.40;;;16.80;99.90;;;;;;5085968;28;20204;-73
2021/08/19 02:43:59;;;;;;;9.03;5.50;;;16.80;99.90;;;;;;5083675;28;20191;-72
2021/08/19 02:46:28;;;;;;;12.00;5.40;;;16.80;99.90;;;;;;5085398;28;20364;-73
2021/08/19 02:48:56;;;;;;;8.80;5.50;;;16.80;99.90;;;;;;5088739;28;20188;-72
2021/08/19 02:51:25;;;;;;;6.50;5.13;;;16.80;99.90;;;;;;5086358;28;20173;-72
2021/08/19 02:53:53;;;;;;;8.57;5.50;;;16.80;99.90;;;;;;5084689;28;20196;-72
2021/08/19 02:56:23;;;;;;;11.47;5.30;;;16.80;99.90;;;;;;5083427;28;20251;-73
2021/08/19 02:58:52;;;;;;;7.60;5.50;;;16.80;99.90;;;;;;5085081;28;20186;-72
2021/08/19 03:01:20;;;;;;;10.53;5.60;;;16.80;99.90;;;;;;5084086;28;20185;-72
2021/08/19 03:03:49;;;;;;;7.10;4.80;;;16.80;99.90;;;;;;5088778;28;20411;-73
2021/08/19 03:06:17;;;;;;;7.77;5.00;;;16.80;99.90;;;;;;5083989;28;20206;-73
2021/08/19 03:08:45;;;;;;;10.73;5.07;;;16.80;99.90;;;;;;5083174;28;20218;-72
2021/08/19 03:11:13;;;;;;;12.00;5.03;;;16.80;99.90;;;;;;5079517;28;20397;-72
2021/08/19 03:13:43;;;;;;;7.43;4.83;;;16.70;99.90;;;;;;5090201;28;20427;-74
2021/08/19 03:16:11;;;;;;;8.10;4.90;;;16.70;99.90;;;;;;5080916;28;20189;-72
2021/08/19 03:18:39;;;;;;;10.00;5.07;;;16.70;99.90;;;;;;5077814;28;20265;-72
2021/08/19 03:21:07;;;;;;;9.90;5.30;;;16.70;99.90;;;;;;5080999;28;20210;-73
2021/08/19 03:23:36;;;;;;;9.40;5.37;;;16.70;99.90;;;;;;5078841;28;20184;-73
2021/08/19 03:26:06;;;;;;;7.90;5.43;;;16.70;99.90;;;;;;5084026;28;20182;-73
2021/08/19 03:28:34;;;;;;;12.10;5.03;;;16.70;99.90;;;;;;5077109;28;20177;-74
2021/08/19 03:31:04;;;;;;;7.87;4.43;;;16.70;99.90;;;;;;5082052;28;20212;-73
2021/08/19 03:33:32;;;;;;;9.40;5.13;;;16.70;99.90;;;;;;5080439;28;20183;-73
2021/08/19 03:36:00;;;;;;;8.37;4.93;;;16.70;99.90;;;;;;5081787;28;20375;-73
2021/08/19 03:38:43;;;;;;;8.33;5.17;;;16.70;99.90;;;;;;5083693;28;20199;-73
2021/08/19 03:41:12;;;;;;;7.07;5.33;;;16.60;99.90;;;;;;5081781;28;20205;-73
2021/08/19 03:43:40;;;;;;;5.90;4.80;;;16.60;99.90;;;;;;5082723;28;20401;-73
2021/08/19 03:46:10;;;;;;;7.70;5.33;;;16.60;99.90;;;;;;5083752;28;20185;-73
2021/08/19 03:48:38;;;;;;;6.67;4.63;;;16.70;99.90;;;;;;5078556;28;20184;-73
2021/08/19 03:51:09;;;;;;;7.37;4.70;;;16.60;99.90;;;;;;5085181;28;20403;-73
2021/08/19 03:53:38;;;;;;;7.37;5.33;;;16.60;99.90;;;;;;5080586;28;20239;-72
2021/08/19 03:56:07;;;;;;;9.07;5.00;;;16.60;99.90;;;;;;5081622;28;20184;-73
2021/08/19 03:58:36;;;;;;;9.07;5.70;;;16.60;99.90;;;;;;5079128;28;20311;-72
2021/08/19 04:01:06;;;;;;;8.20;5.07;;;16.60;99.90;;;;;;5082551;28;20189;-72
2021/08/19 04:03:37;;;;;;;6.90;5.37;;;16.60;99.90;;;;;;5079351;28;20197;-73
2021/08/19 04:06:11;;;;;;;6.20;5.37;;;16.60;99.90;;;;;;5087224;28;20257;-73
2021/08/19 04:08:39;;;;;;;6.93;5.13;;;16.60;99.90;;;;;;5079168;28;20197;-73
2021/08/19 04:11:08;;;;;;;8.33;5.87;;;16.60;99.90;;;;;;5079329;28;20433;-71
2021/08/19 04:13:39;;;;;;;7.13;5.20;;;16.60;99.90;;;;;;5083300;28;20203;-73
2021/08/19 04:16:07;;;;;;;8.93;5.40;;;16.60;99.90;;;;;;5082116;28;20392;-73
2021/08/19 04:18:37;;;;;;;7.53;5.07;;;16.60;99.90;;;;;;5078228;28;20250;-74
2021/08/19 04:21:05;;;;;;;6.77;5.27;;;16.50;99.90;;;;;;5096643;28;20178;-73
2021/08/19 04:23:33;;;;;;;9.87;5.73;;;16.50;99.90;;;;;;5078544;28;20522;-73
2021/08/19 04:26:02;;;;;;;13.17;6.07;;;16.50;99.90;;;;;;5083526;28;20210;-73
2021/08/19 04:28:30;;;;;;;11.40;5.60;;;16.40;99.90;;;;;;5081732;28;20462;-73
2021/08/19 04:30:58;;;;;;;10.60;6.10;;;16.40;99.90;;;;;;5080955;28;20253;-72
2021/08/19 04:33:28;;;;;;;6.77;5.77;;;16.40;99.90;;;;;;5084720;28;20307;-74
2021/08/19 04:35:58;;;;;;;6.33;5.77;;;16.40;99.90;;;;;;5080670;28;20180;-72
2021/08/19 04:38:26;;;;;;;8.20;5.57;;;16.30;99.90;;;;;;5081634;28;20177;-73
2021/08/19 04:40:54;;;;;;;9.67;5.47;;;16.30;99.90;;;;;;5084058;28;20201;-73
2021/08/19 04:43:25;;;;;;;7.83;5.77;;;16.30;99.90;;;;;;5081811;28;20184;-73
2021/08/19 04:45:54;;;;;;;8.53;5.50;;;16.20;99.90;;;;;;5081932;28;20201;-73
2021/08/19 04:48:22;;;;;;;8.40;5.93;;;16.20;99.90;;;;;;5080551;28;20196;-73
2021/08/19 04:50:50;;;;;;;7.03;6.20;;;16.10;99.90;;;;;;5082201;28;20384;-71
2021/08/19 04:53:20;;;;;;;10.10;6.27;;;16.10;99.90;;;;;;5083187;28;20181;-74
2021/08/19 04:55:48;;;;;;;9.30;5.60;;;16.00;99.90;;;;;;5086820;28;20211;-73
2021/08/19 04:58:17;;;;;;;9.90;5.57;;;16.00;99.90;;;;;;5079607;28;20212;-72
2021/08/19 05:00:45;;;;;;;9.97;6.20;;;16.00;99.90;;;;;;5085501;28;20232;-73
2021/08/19 05:03:13;;;;;;;7.20;5.70;;;15.90;99.90;;;;;;5079445;28;20261;-73
2021/08/19 05:05:42;;;;;;;6.00;5.40;;;15.90;99.90;;;;;;5077803;28;20373;-73
2021/08/19 05:08:10;;;;;;;9.70;5.83;;;15.90;99.90;;;;;;5079761;28;20445;-73
2021/08/19 05:10:40;;;;;;;9.73;6.13;;;15.90;99.90;;;;;;5082793;28;20172;-74
2021/08/19 05:13:08;;;;;;;7.23;5.53;;;15.90;99.90;;;;;;5078258;28;20181;-73
2021/08/19 05:15:36;;;;;;;6.03;5.47;;;15.90;99.90;;;;;;5080469;28;20221;-73
2021/08/19 05:18:04;;;;;;;8.83;5.70;;;15.90;99.90;;;;;;5079072;28;20191;-73
2021/08/19 05:20:33;;;;;;;8.40;5.00;;;15.90;99.90;;;;;;5080346;28;20222;-74
2021/08/19 05:23:01;;;;;;;6.30;4.93;;;15.90;99.90;;;;;;5079917;28;20184;-73
2021/08/19 05:25:29;;;;;;;7.07;6.00;;;15.90;99.90;;;;;;5096676;28;20410;-74
2021/08/19 05:27:59;;;;;;;5.40;4.90;;;16.00;99.90;;;;;;5082537;28;20225;-72
2021/08/19 05:30:27;;;;;;;11.63;5.90;;;16.00;99.90;;;;;;5081751;28;20188;-72
2021/08/19 05:32:55;;;;;;;7.60;5.70;;;16.00;99.90;;;;;;5077646;28;20191;-73
2021/08/19 05:35:24;;;;;;;9.30;5.70;;;16.00;99.90;;;;;;5084715;28;20203;-73
2021/08/19 05:37:52;;;;;;;7.97;6.00;;;16.00;99.90;;;;;;5081935;28;20179;-70
2021/08/19 05:40:20;;;;;;;7.33;5.40;;;16.10;99.90;;;;;;5082849;28;20176;-73
2021/08/19 05:42:48;;;;;;;7.07;5.30;;;16.20;99.90;;;;;;5077670;28;20180;-73
2021/08/19 05:45:18;;;;;;;6.40;5.40;;;16.30;99.90;;;;;;5081083;28;20188;-73
2021/08/19 05:47:47;;;;;;;10.27;5.43;;;16.40;99.90;;;;;;5078718;28;20428;-73
2021/08/19 05:50:15;;;;;;;6.03;5.43;;;16.40;99.90;;;;;;5080806;28;20330;-73
2021/08/19 05:52:44;;;;;;;6.57;5.50;;;16.40;99.90;;;;;;5084806;28;20309;-73
2021/08/19 05:55:12;;;;;;;7.60;5.17;;;16.40;99.90;;;;;;5081263;28;20180;-72
2021/08/19 05:57:40;;;;;;;9.17;5.13;;;16.40;99.90;;;;;;5081146;28;20369;-72
2021/08/19 06:00:10;;;;;;;6.20;5.00;;;16.40;99.90;;;;;;5092888;28;20180;-73
2021/08/19 06:02:42;;;;;;;6.40;4.57;;;16.50;99.90;;;;;;5081163;28;20298;-71
2021/08/19 06:05:11;;;;;;;6.43;4.90;;;16.40;99.90;;;;;;5081620;28;20199;-74
2021/08/19 06:07:39;;;;;;;5.20;4.70;;;16.40;99.90;;;;;;5075968;28;20185;-73
2021/08/19 06:10:08;;;;;;;8.07;5.03;;;16.50;99.90;;;;;;5079475;28;20178;-73
2021/08/19 06:12:37;;;;;;;6.27;4.83;;;16.40;99.90;;;;;;5080660;28;20180;-73
2021/08/19 06:15:07;;;;;;;10.10;5.90;;;16.40;99.90;;;;;;5084748;28;20415;-74
2021/08/19 06:17:36;;;;;;;6.60;4.53;;;16.40;99.90;;;;;;5078313;28;20188;-73
2021/08/19 06:20:07;;;;;;;8.20;5.10;;;16.40;99.90;;;;;;5080615;28;20196;-72
2021/08/19 06:22:35;;;;;;;11.07;4.73;;;16.40;99.90;;;;;;5081035;28;20234;-72
2021/08/19 06:25:04;;;;;;;10.83;4.67;;;16.40;99.90;;;;;;5080409;28;20189;-72
2021/08/19 06:27:32;;;;;;;10.23;4.97;;;16.40;99.90;;;;;;5081052;28;20180;-74
2021/08/19 06:30:02;;;;;;;6.27;4.33;;;16.40;99.90;;;;;;5078835;28;20196;-73
2021/08/19 06:32:30;;;;;;;5.90;4.67;;;16.40;99.90;;;;;;5084799;28;20363;-72
2021/08/19 06:34:58;;;;;;;7.50;4.60;;;16.40;99.90;;;;;;5086011;28;20173;-72
2021/08/19 06:37:28;;;;;;;8.47;4.30;;;16.40;99.90;;;;;;5087146;28;20393;-72
2021/08/19 06:39:57;;;;;;;7.27;3.90;;;16.40;99.90;;;;;;5085798;28;20192;-71
2021/08/19 06:42:25;;;;;;;6.33;4.20;;;16.50;99.90;;;;;;5084163;28;20176;-73
2021/08/19 06:44:53;;;;;;;8.27;4.07;;;16.60;99.90;;;;;;5084022;28;20185;-73
2021/08/19 06:47:25;;;;;;;5.33;3.93;;;16.70;99.90;;;;;;5085317;28;20224;-73
2021/08/19 06:49:53;;;;;;;6.77;3.83;;;16.90;99.90;;;;;;5085878;28;20197;-73
2021/08/19 06:52:21;;;;;;;4.77;4.00;;;16.90;99.90;;;;;;5087647;28;20186;-74
2021/08/19 06:54:51;;;;;;;5.40;3.97;;;16.90;99.90;;;;;;5084249;28;20181;-73
2021/08/19 06:57:19;;;;;;;5.13;3.77;;;16.90;99.90;;;;;;5086296;28;20201;-73
2021/08/19 06:59:47;;;;;;;5.73;3.87;;;16.90;99.90;;;;;;5086743;28;20182;-74
2021/08/19 07:02:16;;;;;;;5.63;4.00;;;16.90;99.90;;;;;;5086026;28;20302;-73
2021/08/19 07:04:44;;;;;;;3.80;3.47;;;16.90;99.90;;;;;;5089127;28;20176;-73
2021/08/19 07:07:13;;;;;;;3.93;3.57;;;16.90;99.90;;;;;;5085765;28;20218;-73
2021/08/19 07:09:41;;;;;;;7.60;4.17;;;16.90;99.90;;;;;;5086778;28;20220;-73
2021/08/19 07:12:11;;;;;;;6.37;3.57;;;17.00;99.90;;;;;;5087568;28;20194;-73
2021/08/19 07:14:39;;;;;;;5.87;3.57;;;17.10;99.90;;;;;;5086188;28;20187;-72
2021/08/19 07:17:07;;;;;;;3.70;3.40;;;17.10;99.90;;;;;;5083554;28;20307;-74
2021/08/19 07:19:35;;;;;;;7.73;3.70;;;17.20;99.90;;;;;;5080379;28;20180;-73
2021/08/19 07:22:04;;;;;;;6.23;3.50;;;17.20;99.90;;;;;;5082640;28;20177;-73
2021/08/19 07:24:33;;;;;;;8.17;4.00;;;17.20;99.90;;;;;;5082399;28;20434;-74
2021/08/19 07:27:01;;;;;;;3.50;3.23;;;17.30;99.90;;;;;;5092478;28;20231;-73
2021/08/19 07:29:31;;;;;;;5.13;3.47;;;17.30;99.90;;;;;;5083102;28;20195;-73
2021/08/19 07:31:59;;;;;;;6.07;3.70;;;17.30;99.90;;;;;;5083190;28;20225;-73
2021/08/19 07:34:27;;;;;;;3.60;3.20;;;17.30;99.90;;;;;;5084622;28;20296;-74
2021/08/19 07:36:55;;;;;;;6.37;3.90;;;17.30;99.90;;;;;;5082678;28;20181;-73
2021/08/19 07:39:24;;;;;;;4.30;2.90;;;17.40;99.90;;;;;;5078185;28;20194;-73
2021/08/19 07:41:52;;;;;;;5.53;3.30;;;17.50;99.90;;;;;;5075267;28;20469;-72
2021/08/19 07:44:20;;;;;;;3.00;2.80;;;17.50;99.90;;;;;;5073913;28;20180;-74
2021/08/19 07:46:50;;;;;;;5.10;3.10;;;17.70;99.90;;;;;;5077786;28;20183;-73
2021/08/19 07:49:20;;;;;;;5.53;2.87;;;17.80;99.90;;;;;;5074498;28;20249;-74
2021/08/19 07:51:49;;;;;;;2.73;2.63;;;18.00;99.90;;;;;;5077698;28;20190;-73
2021/08/19 07:54:17;;;;;;;7.40;2.50;;;18.00;99.90;;;;;;5077426;28;20203;-73
2021/08/19 07:56:46;;;;;;;3.40;2.87;;;18.00;99.90;;;;;;5075403;28;20180;-73
2021/08/19 07:59:14;;;;;;;3.33;2.60;;;18.00;99.90;;;;;;5075838;28;20185;-73
2021/08/19 08:01:42;;;;;;;2.87;2.57;;;18.10;99.90;;;;;;5073364;28;20278;-72
2021/08/19 08:04:12;;;;;;;2.93;2.43;;;18.00;99.90;;;;;;5078237;28;20187;-72
2021/08/19 08:06:41;;;;;;;2.60;2.40;;;18.00;99.90;;;;;;5082186;28;20404;-74
2021/08/19 08:09:10;;;;;;;2.60;2.30;;;18.00;99.90;;;;;;5088197;28;20211;-73
2021/08/19 08:11:38;;;;;;;5.70;2.20;;;18.10;99.90;;;;;;5082164;28;20453;-73
2021/08/19 08:14:06;;;;;;;3.00;2.60;;;18.10;99.90;;;;;;5082514;28;20301;-73
2021/08/19 08:16:35;;;;;;;3.13;2.23;;;18.00;99.90;;;;;;5085415;28;20188;-74
2021/08/19 08:19:03;;;;;;;2.37;2.27;;;18.00;99.90;;;;;;5078463;28;20180;-73
2021/08/19 08:21:32;;;;;;;2.67;2.43;;;18.00;99.90;;;;;;5082054;28;20184;-73
2021/08/19 08:24:03;;;;;;;6.07;2.47;;;18.10;99.90;;;;;;5081943;28;20399;-73
2021/08/19 08:26:32;;;;;;;3.53;2.70;;;18.00;99.90;;;;;;5079868;28;20496;-74
2021/08/19 08:29:00;;;;;;;4.27;2.37;;;18.00;99.90;;;;;;5082818;28;20222;-72
2021/08/19 08:31:30;;;;;;;3.00;2.43;;;18.00;99.90;;;;;;5079851;28;20212;-73
2021/08/19 08:33:58;;;;;;;3.33;2.53;;;18.00;99.90;;;;;;5079933;28;20211;-74
2021/08/19 08:36:27;;;;;;;2.93;2.63;;;18.00;99.90;;;;;;5077812;28;20180;-73
2021/08/19 08:38:56;;;;;;;5.03;2.70;;;17.90;99.90;;;;;;5084874;28;20180;-71
2021/08/19 08:41:25;;;;;;;3.17;2.83;;;17.90;99.90;;;;;;5081729;28;20296;-73
2021/08/19 08:43:54;;;;;;;5.03;2.90;;;17.90;99.90;;;;;;5081792;28;20229;-73
2021/08/19 08:46:24;;;;;;;4.93;2.70;;;17.90;99.90;;;;;;5095511;28;20179;-72
2021/08/19 08:48:56;;;;;;;4.23;2.83;;;17.90;99.90;;;;;;5080884;28;20172;-73
2021/08/19 08:51:26;;;;;;;5.63;3.27;;;17.90;99.90;;;;;;5078177;28;20216;-73
2021/08/19 08:53:55;;;;;;;3.50;2.70;;;17.80;99.90;;;;;;5080974;28;20177;-73
2021/08/19 08:56:25;;;;;;;3.03;2.73;;;17.80;99.90;;;;;;5076920;28;20175;-72
2021/08/19 08:58:54;;;;;;;4.23;3.00;;;17.70;99.90;;;;;;5077440;28;20211;-73
2021/08/19 09:01:22;;;;;;;4.60;2.70;;;17.60;99.90;;;;;;5083709;28;20176;-73
2021/08/19 09:03:51;;;;;;;4.20;2.33;;;17.60;99.90;;;;;;5079825;28;20172;-73
2021/08/19 09:06:35;;;;;;;4.77;2.50;;;17.60;99.90;;;;;;5079174;28;20737;-73
2021/08/19 09:09:16;;;;;;;3.70;2.60;;;17.70;99.90;;;;;;5079625;28;20209;-72
2021/08/19 09:11:46;;;;;;;4.20;2.73;;;17.70;99.90;;;;;;5079571;28;20187;-73
2021/08/19 09:14:15;;;;;;;3.53;2.40;;;17.70;99.90;;;;;;5079358;28;20179;-72
2021/08/19 09:16:46;;;;;;;4.23;2.40;;;17.70;99.90;;;;;;5079943;28;20175;-73
2021/08/19 09:19:16;;;;;;;3.63;2.60;;;17.80;99.90;;;;;;5082401;28;20176;-73
2021/08/19 09:21:52;;;;;;;4.40;2.50;;;17.90;99.90;;;;;;5078788;28;20201;-73
2021/08/19 09:24:23;;;;;;;2.23;2.10;;;18.10;99.90;;;;;;5077710;28;20178;-73
2021/08/19 09:26:52;;;;;;;3.27;2.33;;;18.20;99.90;;;;;;5083604;28;20180;-74
2021/08/19 09:29:23;;;;;;;5.00;2.27;;;18.20;99.90;;;;;;5080422;28;20183;-72
2021/08/19 09:31:53;;;;;;;5.30;2.20;;;18.30;99.90;;;;;;5077279;28;20242;-74
2021/08/19 09:34:22;;;;;;;2.83;2.10;;;18.30;99.90;;;;;;5078768;28;20184;-74
2021/08/19 09:37:01;;;;;;;4.93;2.10;;;18.50;99.90;;;;;;5088166;28;20184;-74
2021/08/19 09:39:36;;;;;;;3.77;2.10;;;18.60;99.90;;;;;;5084996;28;20171;-74
2021/08/19 09:42:06;;;;;;;2.63;2.10;;;18.80;99.90;;;;;;5081504;28;20183;-73
2021/08/19 09:44:36;;;;;;;2.00;1.90;;;18.90;99.90;;;;;;5083833;28;20222;-73
2021/08/19 09:47:05;;;;;;;2.43;2.23;;;18.90;99.90;;;;;;5082884;28;20384;-74
2021/08/19 09:49:37;;;;;;;2.17;2.07;;;18.90;99.90;;;;;;5082642;28;20187;-74
2021/08/19 09:52:08;;;;;;;2.30;2.17;;;19.00;99.90;;;;;;5076978;28;20399;-72
2021/08/19 09:54:39;;;;;;;2.03;1.93;;;19.00;99.90;;;;;;5078432;28;20471;-73
2021/08/19 09:57:09;;;;;;;4.43;2.40;;;19.00;99.90;;;;;;5079712;28;20172;-74
2021/08/19 09:59:40;;;;;;;3.07;2.13;;;19.00;99.90;;;;;;5076253;28;20510;-74
2021/08/19 10:02:10;;;;;;;5.43;2.30;;;19.10;99.90;;;;;;5083491;28;20188;-74
2021/08/19 10:04:39;;;;;;;2.60;1.90;;;19.00;99.90;;;;;;5077948;28;20258;-71
2021/08/19 10:07:07;;;;;;;2.67;1.77;;;18.80;99.90;;;;;;5083407;28;20180;-74
2021/08/19 10:09:36;;;;;;;3.20;1.70;;;18.70;99.90;;;;;;5082500;28;20184;-73
2021/08/19 10:12:07;;;;;;;2.47;1.57;;;18.50;99.90;;;;;;5086595;28;20180;-74
2021/08/19 10:14:35;;;;;;;2.00;1.40;;;18.40;99.90;;;;;;5089774;28;20381;-73
2021/08/19 10:17:09;;;;;;;4.67;1.90;;;18.40;99.90;;;;;;5090383;28;20184;-73
2021/08/19 10:19:41;;;;;;;2.00;1.80;;;18.40;99.90;;;;;;5085920;28;20251;-74
2021/08/19 10:22:14;;;;;;;1.67;1.57;;;18.50;99.90;;;;;;5086549;28;20308;-73
2021/08/19 10:24:46;;;;;;;2.30;1.60;;;18.60;99.90;;;;;;5090326;28;20179;-74
2021/08/19 10:27:21;;;;;;;1.70;1.60;;;18.70;99.90;;;;;;5086753;28;20421;-74
2021/08/19 10:29:51;;;;;;;1.63;1.60;;;18.80;99.90;;;;;;5079435;28;20191;-74
2021/08/19 10:32:28;;;;;;;1.80;1.70;;;19.00;99.90;;;;;;5084894;28;20215;-74
2021/08/19 10:34:59;;;;;;;1.60;1.50;;;19.00;99.90;;;;;;5083948;28;20409;-74
2021/08/19 10:38:02;;;;;;;2.60;1.90;;;19.00;99.90;;;;;;5087634;28;20263;-74
2021/08/19 10:40:39;;;;;;;2.43;1.57;;;19.10;99.90;;;;;;5084871;28;20184;-73
2021/08/19 10:43:44;;;;;;;2.57;1.90;;;19.10;99.90;;;;;;5087068;28;20172;-73
2021/08/19 10:46:18;;;;;;;2.13;1.77;;;19.20;99.90;;;;;;5086775;28;20180;-74
2021/08/19 10:48:49;;;;;;;2.03;1.90;;;19.60;99.90;;;;;;5085411;28;20180;-73
2021/08/19 10:51:18;;;;;;;2.37;1.97;;;19.80;99.90;;;;;;5082366;28;20196;-73
2021/08/19 10:53:47;;;;;;;5.47;2.20;;;19.60;99.90;;;;;;5082402;28;20217;-73
2021/08/19 10:56:40;;;;;;;2.83;1.87;;;19.40;99.90;;;;;;5080791;28;20204;-72
2021/08/19 10:59:39;;;;;;;1.90;1.80;;;19.40;99.90;;;;;;5082149;28;20218;-74
2021/08/19 11:02:08;;;;;;;2.30;2.07;;;19.30;99.90;;;;;;5002780;28;20218;-74
2021/08/19 11:04:41;;;;;;;2.13;1.90;;;19.30;99.90;;;;;;5064417;28;20199;-74
2021/08/19 11:07:10;;;;;;;4.43;2.00;;;19.20;99.90;;;;;;5078073;28;20222;-74
2021/08/19 11:09:38;;;;;;;1.90;1.80;;;19.10;99.90;;;;;;5061498;28;20454;-74
2021/08/19 11:12:08;;;;;;;1.87;1.77;;;19.10;99.90;;;;;;5081318;28;20246;-74
2021/08/19 11:14:39;;;;;;;2.27;2.07;;;18.90;99.90;;;;;;5089995;28;20180;-74
2021/08/19 11:17:08;;;;;;;3.70;2.03;;;18.80;99.90;;;;;;5080119;28;20199;-74
2021/08/19 11:19:37;;;;;;;4.60;1.80;;;18.80;99.90;;;;;;5081370;28;20407;-74
2021/08/19 11:22:07;;;;;;;4.13;2.00;;;18.70;99.90;;;;;;5083559;28;20168;-74
2021/08/19 11:24:39;;;;;;;2.93;2.13;;;18.70;99.90;;;;;;5084669;28;20187;-73
2021/08/19 11:27:09;;;;;;;3.23;2.23;;;18.70;99.90;;;;;;5084568;28;20195;-73
2021/08/19 11:29:39;;;;;;;2.20;2.00;;;18.80;99.90;;;;;;5092286;28;20176;-74
2021/08/19 11:32:25;;;;;;;3.10;2.00;;;18.80;99.90;;;;;;5080933;28;20227;-74
2021/08/19 11:34:53;;;;;;;2.07;1.97;;;18.80;99.90;;;;;;5082412;28;20183;-72
2021/08/19 11:37:28;;;;;;;2.17;1.93;;;18.80;99.90;;;;;;5083871;28;20199;-74
2021/08/19 11:39:59;;;;;;;4.60;2.23;;;18.80;99.90;;;;;;5082306;28;20390;-74
2021/08/19 11:42:28;;;;;;;1.97;1.87;;;18.90;99.90;;;;;;5081343;28;20180;-74
2021/08/19 11:45:18;;;;;;;2.77;2.23;;;18.90;99.90;;;;;;5080160;28;20392;-74
2021/08/19 11:47:50;;;;;;;1.83;1.73;;;18.90;99.90;;;;;;5077661;28;20183;-73
2021/08/19 11:50:22;;;;;;;5.60;2.10;;;18.80;99.90;;;;;;5077828;28;20183;-74
2021/08/19 11:52:50;;;;;;;2.40;1.70;;;18.90;99.90;;;;;;5081358;28;20188;-74
2021/08/19 11:55:27;;;;;;;3.00;2.30;;;19.00;99.90;;;;;;5081538;28;20179;-74
2021/08/19 11:58:14;;;;;;;4.83;2.10;;;19.00;99.90;;;;;;5081136;28;20176;-73
2021/08/19 12:00:56;;;;;;;2.53;2.10;;;19.00;99.90;;;;;;5079846;28;20199;-73
2021/08/19 12:03:26;;;;;;;2.60;2.23;;;19.10;99.90;;;;;;5077008;28;20263;-74
2021/08/19 12:06:02;;;;;;;2.90;2.20;;;19.30;99.90;;;;;;5079889;28;20415;-74
2021/08/19 12:08:32;;;;;;;5.33;2.20;;;19.50;99.90;;;;;;5065780;28;20194;-73
2021/08/19 12:11:02;;;;;;;2.30;2.10;;;19.60;99.90;;;;;;5092790;28;20212;-75
2021/08/19 12:13:32;;;;;;;2.97;2.03;;;19.60;99.90;;;;;;5083907;28;20211;-73
2021/08/19 12:16:01;;;;;;;2.60;2.40;;;19.50;99.90;;;;;;5080278;28;20187;-70
2021/08/19 12:18:31;;;;;;;3.90;2.40;;;19.30;99.90;;;;;;5083257;28;20296;-74
2021/08/19 12:21:23;;;;;;;2.10;2.00;;;19.20;99.90;;;;;;5084478;28;20176;-74
2021/08/19 12:24:07;;;;;;;2.40;2.20;;;19.20;99.90;;;;;;5065918;28;20203;-74
2021/08/19 12:26:36;;;;;;;2.60;2.40;;;19.10;99.90;;;;;;5081880;28;20198;-74
2021/08/19 12:29:04;;;;;;;2.40;2.23;;;19.00;99.90;;;;;;5083462;28;20334;-74
2021/08/19 12:31:54;;;;;;;3.70;2.13;;;19.10;99.90;;;;;;5085271;28;20216;-74
2021/08/19 12:34:23;;;;;;;2.13;2.03;;;19.10;99.90;;;;;;5085598;28;20187;-74
2021/08/19 12:36:52;;;;;;;3.47;2.40;;;19.10;99.90;;;;;;5084922;28;20190;-74
2021/08/19 12:39:23;;;;;;;2.60;2.40;;;19.30;99.90;;;;;;5083171;28;20191;-73
2021/08/19 12:42:05;;;;;;;5.07;2.33;;;19.50;99.90;;;;;;5088451;28;20187;-73
2021/08/19 12:44:34;;;;;;;4.17;2.53;;;19.60;99.90;;;;;;5082108;28;20331;-74
2021/08/19 12:47:02;;;;;;;3.43;2.23;;;19.70;99.90;;;;;;5079826;28;20186;-74
2021/08/19 12:49:34;;;;;;;2.53;2.33;;;19.70;99.90;;;;;;5084940;28;20180;-74
2021/08/19 12:52:26;;;;;;;2.90;2.60;;;19.60;99.90;;;;;;5084513;28;20435;-74
2021/08/19 12:55:00;;;;;;;3.70;2.20;;;19.70;99.90;;;;;;5063452;28;20188;-74
2021/08/19 12:57:30;;;;;;;2.80;2.47;;;19.80;99.90;;;;;;5079174;28;20330;-74
2021/08/19 12:59:59;;;;;;;2.80;2.60;;;19.90;99.90;;;;;;5073240;28;20184;-74
2021/08/19 13:02:28;;;;;;;2.50;2.40;;;19.90;99.90;;;;;;5074312;28;20179;-73